Time;durP1;ratioP1;P1;durP2;ratioP2;P2;SDS_P1;SDS_P2;PMS_P1;PMS_P2;Temp;Humidity;BMP_temperature;BMP_pressure;BME280_temperature;BME280_humidity;BME280_pressure;Samples;Min_cycle;Max_cycle;Signal;HPM_P1;HPM_P2
2022/04/05 00:01:22;;;;;;;8.17;5.17;;;;;;;6.40;94.05;99385.00;4989787;28;20211;-70
2022/04/05 00:03:48;;;;;;;5.57;4.50;;;;;;;6.39;94.22;99378.88;4981156;28;20282;-71
2022/04/05 00:06:16;;;;;;;7.17;5.10;;;;;;;6.39;94.29;99384.16;4984738;28;20295;-68
2022/04/05 00:08:43;;;;;;;7.13;5.00;;;;;;;6.41;93.93;99387.56;4994188;28;20256;-70
2022/04/05 00:11:10;;;;;;;6.93;5.57;;;;;;;6.42;94.12;99383.13;4986911;28;20207;-70
2022/04/05 00:13:38;;;;;;;6.33;4.70;;;;;;;6.43;94.21;99382.16;4987569;28;20227;-70
2022/04/05 00:16:05;;;;;;;7.30;6.37;;;;;;;6.44;94.57;99390.00;4989305;28;20237;-69
2022/04/05 00:18:33;;;;;;;6.03;5.07;;;;;;;6.45;94.01;99388.22;4987507;28;20281;-70
2022/04/05 00:20:59;;;;;;;6.77;5.33;;;;;;;6.43;93.98;99390.94;4986652;28;20296;-70
2022/04/05 00:23:26;;;;;;;7.00;5.47;;;;;;;6.44;94.26;99387.34;4988729;28;20604;-70
2022/04/05 00:25:53;;;;;;;5.53;4.87;;;;;;;6.45;94.16;99383.72;4989141;28;20211;-69
2022/04/05 00:28:19;;;;;;;6.90;5.27;;;;;;;6.45;94.26;99393.50;4993072;28;20231;-69
2022/04/05 00:30:46;;;;;;;5.97;4.43;;;;;;;6.45;93.94;99377.63;5004659;28;20236;-70
2022/04/05 00:33:13;;;;;;;6.83;5.70;;;;;;;6.44;94.35;99375.94;4978299;28;20633;-70
2022/04/05 00:35:41;;;;;;;6.43;5.27;;;;;;;6.43;94.25;99376.88;4987270;28;20203;-70
2022/04/05 00:38:08;;;;;;;7.03;5.47;;;;;;;6.43;94.53;99376.88;4988551;28;20241;-70
2022/04/05 00:40:36;;;;;;;6.67;4.67;;;;;;;6.43;94.54;99374.25;4988585;28;20246;-70
2022/04/05 00:43:05;;;;;;;5.70;4.37;;;;;;;6.42;94.17;99378.69;4983964;28;20306;-70
2022/04/05 00:45:32;;;;;;;4.87;3.93;;;;;;;6.43;94.80;99387.47;4987751;28;20247;-69
2022/04/05 00:48:00;;;;;;;5.23;4.13;;;;;;;6.44;94.40;99386.50;4996825;28;20235;-70
2022/04/05 00:50:27;;;;;;;5.03;3.90;;;;;;;6.42;94.81;99383.97;4988100;28;20211;-70
2022/04/05 00:52:55;;;;;;;4.90;4.27;;;;;;;6.42;94.71;99391.06;4988486;28;20211;-70
2022/04/05 00:55:22;;;;;;;5.33;4.37;;;;;;;6.41;94.29;99392.00;4988141;28;20231;-70
2022/04/05 00:57:50;;;;;;;5.10;4.43;;;;;;;6.41;94.71;99387.56;4978398;28;20208;-70
2022/04/05 01:00:17;;;;;;;4.87;3.30;;;;;;;6.42;94.86;99388.41;4988454;28;20633;-69
2022/04/05 01:02:47;;;;;;;4.80;3.60;;;;;;;6.41;94.62;99397.28;4988355;28;20286;-70
2022/04/05 01:05:16;;;;;;;4.07;2.73;;;;;;;6.40;94.85;99395.59;4986414;28;20207;-70
2022/04/05 01:07:46;;;;;;;1.60;1.50;;;;;;;6.39;94.70;99399.19;4972796;28;20565;-70
2022/04/05 01:10:14;;;;;;;2.67;1.17;;;;;;;6.35;94.17;99387.09;4973339;28;20587;-69
2022/04/05 01:12:41;;;;;;;0.80;0.80;;;;;;;6.31;94.56;99383.81;4985191;28;20219;-70
2022/04/05 01:15:09;;;;;;;0.90;0.70;;;;;;;6.28;94.09;99384.00;4972909;28;20327;-70
2022/04/05 01:17:36;;;;;;;0.83;0.60;;;;;;;6.25;94.10;99382.44;4987850;28;20196;-70
2022/04/05 01:20:04;;;;;;;0.40;0.40;;;;;;;6.22;93.93;99377.34;4992044;28;20776;-70
2022/04/05 01:22:31;;;;;;;0.47;0.30;;;;;;;6.19;93.59;99377.53;4991584;28;20238;-70
2022/04/05 01:24:59;;;;;;;0.50;0.50;;;;;;;6.18;93.43;99375.00;4991689;28;20196;-70
2022/04/05 01:27:27;;;;;;;0.20;0.20;;;;;;;6.17;92.75;99363.56;4982911;28;20200;-70
2022/04/05 01:29:55;;;;;;;0.63;0.40;;;;;;;6.15;93.04;99364.63;4973699;28;20223;-70
2022/04/05 01:32:22;;;;;;;0.33;0.17;;;;;;;6.11;92.32;99366.59;4987121;28;20208;-71
2022/04/05 01:34:49;;;;;;;0.40;0.17;;;;;;;6.11;91.96;99379.81;4992480;28;20234;-70
2022/04/05 01:37:15;;;;;;;0.80;0.20;;;;;;;6.09;92.04;99383.53;4991471;28;20208;-71
2022/04/05 01:39:43;;;;;;;0.20;0.20;;;;;;;6.07;91.41;99380.16;4991772;28;20231;-70
2022/04/05 01:42:13;;;;;;;0.87;0.20;;;;;;;6.06;91.21;99378.44;4991083;28;20579;-70
2022/04/05 01:44:41;;;;;;;0.43;0.20;;;;;;;6.04;91.04;99389.13;4990237;28;20386;-71
2022/04/05 01:47:10;;;;;;;0.53;0.30;;;;;;;6.04;91.17;99385.63;4988785;28;20578;-71
2022/04/05 01:49:37;;;;;;;0.37;0.30;;;;;;;6.04;91.31;99381.19;4989082;28;20300;-71
2022/04/05 01:52:04;;;;;;;0.30;0.30;;;;;;;6.04;90.88;99389.13;4991369;28;20207;-71
2022/04/05 01:54:31;;;;;;;1.30;0.40;;;;;;;6.05;90.99;99379.41;4987593;28;20224;-71
2022/04/05 01:56:57;;;;;;;0.67;0.37;;;;;;;6.06;91.21;99381.94;4972995;28;20218;-72
2022/04/05 01:59:27;;;;;;;0.40;0.40;;;;;;;6.05;90.71;99379.41;4972069;28;20280;-71
2022/04/05 02:01:54;;;;;;;0.30;0.30;;;;;;;6.05;90.62;99380.25;4979043;28;20691;-71
2022/04/05 02:04:21;;;;;;;0.40;0.30;;;;;;;6.06;90.75;99383.72;4988089;28;20201;-71
2022/04/05 02:06:48;;;;;;;0.40;0.40;;;;;;;6.04;90.04;99375.06;4979024;28;20211;-71
2022/04/05 02:09:15;;;;;;;0.37;0.37;;;;;;;6.03;90.20;99371.56;4989404;28;20246;-70
2022/04/05 02:11:44;;;;;;;0.40;0.33;;;;;;;6.02;90.15;99382.22;4991353;28;20395;-70
2022/04/05 02:14:11;;;;;;;0.37;0.37;;;;;;;6.03;90.39;99381.28;4990623;28;20238;-71
2022/04/05 02:16:39;;;;;;;0.90;0.43;;;;;;;6.01;89.67;99391.09;4989644;28;20589;-70
2022/04/05 02:19:06;;;;;;;0.30;0.30;;;;;;;6.02;90.27;99387.50;4978162;28;20227;-71
2022/04/05 02:21:33;;;;;;;0.77;0.43;;;;;;;6.02;90.05;99388.38;4971531;28;20214;-71
2022/04/05 02:24:00;;;;;;;0.40;0.40;;;;;;;6.02;90.12;99391.00;4973295;28;20242;-72
2022/04/05 02:26:27;;;;;;;0.60;0.60;;;;;;;6.03;89.94;99397.16;4990202;28;20200;-71
2022/04/05 02:28:53;;;;;;;0.70;0.57;;;;;;;6.03;89.67;99398.00;4981452;28;20228;-70
2022/04/05 02:31:20;;;;;;;0.83;0.70;;;;;;;6.02;90.06;99396.28;4971437;28;20346;-71
2022/04/05 02:33:48;;;;;;;1.37;0.77;;;;;;;6.03;89.88;99400.63;4989548;28;20295;-71
2022/04/05 02:36:15;;;;;;;1.37;0.70;;;;;;;6.03;89.89;99395.34;4973674;28;20205;-71
2022/04/05 02:38:41;;;;;;;0.97;0.70;;;;;;;6.04;89.94;99402.34;4975601;28;20220;-71
2022/04/05 02:41:08;;;;;;;1.83;0.70;;;;;;;6.05;89.66;99397.91;4990620;28;20203;-71
2022/04/05 02:43:35;;;;;;;0.77;0.77;;;;;;;6.04;89.87;99391.75;4990536;28;20218;-71
2022/04/05 02:46:02;;;;;;;0.80;0.70;;;;;;;6.03;89.78;99405.91;4990245;28;20286;-71
2022/04/05 02:48:30;;;;;;;0.80;0.77;;;;;;;6.04;89.53;99410.25;4989759;28;20236;-71
2022/04/05 02:50:58;;;;;;;1.30;0.80;;;;;;;6.07;89.48;99417.16;4987342;28;20211;-71
2022/04/05 02:53:25;;;;;;;1.80;1.00;;;;;;;6.08;89.28;99417.06;4990566;28;20546;-70
2022/04/05 02:55:51;;;;;;;1.67;1.00;;;;;;;6.10;89.27;99415.13;4990293;28;20224;-70
2022/04/05 02:58:18;;;;;;;1.50;0.97;;;;;;;6.10;89.30;99409.84;4973927;28;20226;-70
2022/04/05 03:00:45;;;;;;;1.93;1.07;;;;;;;6.11;89.31;99421.25;4990338;28;20299;-73
2022/04/05 03:03:11;;;;;;;1.13;0.80;;;;;;;6.12;89.46;99415.03;4990221;28;20211;-71
2022/04/05 03:05:38;;;;;;;2.30;1.23;;;;;;;6.13;89.49;99420.22;4978272;28;20574;-72
2022/04/05 03:08:06;;;;;;;1.97;1.10;;;;;;;6.13;89.13;99420.22;4970208;28;20232;-72
2022/04/05 03:10:33;;;;;;;1.83;1.10;;;;;;;6.14;89.07;99427.22;4970648;28;20227;-72
2022/04/05 03:13:01;;;;;;;1.47;1.10;;;;;;;6.14;88.86;99424.56;4970525;28;20287;-72
2022/04/05 03:15:28;;;;;;;1.40;1.30;;;;;;;6.13;88.93;99425.50;4976538;28;20223;-72
2022/04/05 03:17:55;;;;;;;1.87;1.27;;;;;;;6.15;88.63;99434.19;4988719;28;20235;-72
2022/04/05 03:20:22;;;;;;;1.70;1.17;;;;;;;6.15;88.90;99436.84;4994999;23;20249;-72
2022/04/05 03:22:49;;;;;;;1.57;1.00;;;;;;;6.16;88.80;99435.91;4969476;28;20219;-72
2022/04/05 03:25:17;;;;;;;1.33;0.90;;;;;;;6.17;88.81;99434.94;4972043;28;20219;-73
2022/04/05 03:27:45;;;;;;;2.00;1.10;;;;;;;6.18;88.33;99435.78;4982807;28;20207;-72
2022/04/05 03:30:13;;;;;;;1.20;1.10;;;;;;;6.18;88.37;99434.00;4969334;28;20258;-72
2022/04/05 03:32:40;;;;;;;1.33;1.20;;;;;;;6.17;88.26;99432.31;4964942;28;20204;-73
2022/04/05 03:35:08;;;;;;;1.40;0.80;;;;;;;6.19;88.15;99437.50;4969815;28;20224;-73
2022/04/05 03:37:35;;;;;;;1.47;0.80;;;;;;;6.18;88.06;99436.66;4969558;28;20215;-73
2022/04/05 03:40:02;;;;;;;1.87;0.93;;;;;;;6.17;87.99;99434.94;4974230;28;20840;-72
2022/04/05 03:42:30;;;;;;;1.77;1.10;;;;;;;6.19;88.03;99443.63;4958588;28;20204;-72
2022/04/05 03:44:56;;;;;;;2.23;1.00;;;;;;;6.19;88.11;99446.28;4963719;28;20782;-73
2022/04/05 03:47:23;;;;;;;2.27;1.07;;;;;;;6.20;88.01;99455.91;4964756;28;20207;-73
2022/04/05 03:49:50;;;;;;;1.77;1.07;;;;;;;6.20;87.81;99449.78;4959964;28;20225;-72
2022/04/05 03:52:16;;;;;;;3.33;1.30;;;;;;;6.20;87.87;99453.25;4971674;28;20203;-72
2022/04/05 03:54:43;;;;;;;1.20;1.10;;;;;;;6.20;87.72;99453.25;4980923;28;20231;-73
2022/04/05 03:57:09;;;;;;;1.83;1.17;;;;;;;6.21;87.64;99460.25;4964508;28;20204;-70
2022/04/05 03:59:37;;;;;;;1.17;1.00;;;;;;;6.23;87.45;99454.88;4966552;28;20225;-72
2022/04/05 04:02:04;;;;;;;2.47;1.30;;;;;;;6.24;87.57;99454.75;4967304;28;20216;-73
2022/04/05 04:04:31;;;;;;;2.80;1.27;;;;;;;6.25;87.47;99456.47;4976714;28;20666;-72
2022/04/05 04:06:57;;;;;;;1.93;1.30;;;;;;;6.25;87.75;99452.97;4965673;28;20682;-72
2022/04/05 04:09:24;;;;;;;2.10;1.30;;;;;;;6.25;87.31;99460.91;4963433;28;20259;-72
2022/04/05 04:11:51;;;;;;;3.80;1.60;;;;;;;6.24;87.66;99460.06;4965205;28;20212;-72
2022/04/05 04:14:18;;;;;;;4.80;1.50;;;;;;;6.25;87.49;99456.47;4954860;28;20216;-71
2022/04/05 04:16:46;;;;;;;3.33;1.60;;;;;;;6.23;87.79;99463.66;4955060;28;20204;-72
2022/04/05 04:19:13;;;;;;;2.17;1.40;;;;;;;6.24;87.50;99470.63;4959491;28;20324;-72
2022/04/05 04:21:39;;;;;;;3.07;1.77;;;;;;;6.25;87.54;99467.03;4958044;28;20219;-72
2022/04/05 04:24:07;;;;;;;3.30;1.60;;;;;;;6.25;87.86;99471.47;4952520;28;20204;-72
2022/04/05 04:26:33;;;;;;;4.77;1.83;;;;;;;6.25;87.72;99467.03;4959176;28;20665;-72
2022/04/05 04:29:03;;;;;;;1.87;1.50;;;;;;;6.25;87.81;99463.53;4956674;28;20394;-72
2022/04/05 04:31:31;;;;;;;3.97;1.83;;;;;;;6.26;87.61;99465.25;4966907;28;20684;-72
2022/04/05 04:33:59;;;;;;;2.47;1.70;;;;;;;6.27;87.17;99470.41;4968342;28;20590;-71
2022/04/05 04:36:26;;;;;;;3.23;1.87;;;;;;;6.27;87.81;99472.19;4967311;28;20457;-72
2022/04/05 04:38:52;;;;;;;3.07;1.70;;;;;;;6.27;87.43;99475.69;4970803;28;20237;-72
2022/04/05 04:41:21;;;;;;;4.07;2.10;;;;;;;6.28;87.52;99473.91;4970205;28;20359;-72
2022/04/05 04:43:48;;;;;;;3.87;2.00;;;;;;;6.27;87.29;99491.56;4979951;28;20198;-71
2022/04/05 04:46:15;;;;;;;3.80;1.93;;;;;;;6.27;87.45;99488.06;4968325;28;20617;-72
2022/04/05 04:48:41;;;;;;;3.97;2.03;;;;;;;6.28;87.19;99493.25;4972469;28;20697;-72
2022/04/05 04:51:09;;;;;;;3.30;1.87;;;;;;;6.29;87.44;99494.09;4972400;28;20208;-72
2022/04/05 04:53:36;;;;;;;3.03;2.13;;;;;;;6.28;87.72;99493.25;4973066;28;20200;-72
2022/04/05 04:56:03;;;;;;;4.27;2.20;;;;;;;6.31;87.57;99501.94;4972960;28;20239;-73
2022/04/05 04:58:29;;;;;;;4.07;2.00;;;;;;;6.31;87.20;99496.66;4972315;28;20218;-72
2022/04/05 05:00:56;;;;;;;3.43;2.77;;;;;;;6.31;87.30;99491.38;4972561;28;20204;-72
2022/04/05 05:03:22;;;;;;;4.27;2.60;;;;;;;6.31;87.44;99494.84;4972838;28;20223;-72
2022/04/05 05:05:49;;;;;;;4.27;2.53;;;;;;;6.31;87.78;99501.94;4972804;28;20240;-72
2022/04/05 05:08:17;;;;;;;4.53;2.30;;;;;;;6.31;87.98;99499.31;4971866;28;20669;-72
2022/04/05 05:10:43;;;;;;;3.73;2.20;;;;;;;6.32;87.82;99503.66;4972171;28;20651;-73
2022/04/05 05:13:10;;;;;;;5.03;2.20;;;;;;;6.31;88.01;99513.38;4972922;28;20215;-72
2022/04/05 05:15:36;;;;;;;3.57;1.80;;;;;;;6.32;87.39;99516.88;4972578;28;20231;-72
2022/04/05 05:18:03;;;;;;;6.50;1.93;;;;;;;6.33;88.08;99531.78;4972386;28;20209;-72
2022/04/05 05:20:29;;;;;;;6.40;1.90;;;;;;;6.33;87.38;99531.78;4971924;28;20716;-72
2022/04/05 05:22:56;;;;;;;4.47;1.90;;;;;;;6.32;87.70;99524.81;4973238;28;20258;-72
2022/04/05 05:25:24;;;;;;;6.00;2.47;;;;;;;6.34;87.35;99525.56;4972690;28;20642;-72
2022/04/05 05:27:50;;;;;;;6.17;2.43;;;;;;;6.35;87.51;99533.38;4972399;28;20204;-72
2022/04/05 05:30:17;;;;;;;3.40;2.07;;;;;;;6.34;87.79;99541.41;4971976;28;20630;-72
2022/04/05 05:32:44;;;;;;;7.90;2.20;;;;;;;6.36;87.93;99552.75;4972866;28;20211;-72
2022/04/05 05:35:11;;;;;;;4.47;2.00;;;;;;;6.36;87.63;99552.75;4972348;28;20606;-71
2022/04/05 05:37:38;;;;;;;7.00;2.43;;;;;;;6.37;87.84;99560.59;4968732;28;20208;-71
2022/04/05 05:40:06;;;;;;;3.90;2.30;;;;;;;6.37;87.52;99567.69;4965563;28;20232;-71
2022/04/05 05:42:34;;;;;;;5.97;2.27;;;;;;;6.38;87.42;99569.38;4963791;28;20204;-72
2022/04/05 05:45:00;;;;;;;5.23;2.07;;;;;;;6.40;87.66;99583.34;4972394;28;20214;-72
2022/04/05 05:47:27;;;;;;;4.27;2.37;;;;;;;6.42;87.67;99578.81;4971516;28;20236;-72
2022/04/05 05:49:54;;;;;;;6.90;2.57;;;;;;;6.42;87.84;99577.03;4970682;28;20713;-72
2022/04/05 05:52:20;;;;;;;4.20;2.63;;;;;;;6.44;87.55;99591.00;4971990;28;20204;-73
2022/04/05 05:54:48;;;;;;;5.13;2.20;;;;;;;6.44;87.63;99587.50;4971666;28;20242;-72
2022/04/05 05:57:14;;;;;;;5.60;2.07;;;;;;;6.40;87.67;99586.84;4971403;28;20204;-73
2022/04/05 05:59:42;;;;;;;6.53;2.07;;;;;;;6.36;87.63;99595.06;4972050;28;20468;-73
2022/04/05 06:02:09;;;;;;;4.93;2.10;;;;;;;6.33;87.01;99597.91;4971297;28;20554;-72
2022/04/05 06:04:35;;;;;;;5.17;2.00;;;;;;;6.30;87.46;99603.38;4972031;28;20219;-74
2022/04/05 06:07:02;;;;;;;4.67;2.57;;;;;;;6.25;87.28;99609.81;4971243;28;20204;-73
2022/04/05 06:09:28;;;;;;;7.40;2.10;;;;;;;6.24;87.14;99610.75;4966668;28;20224;-73
2022/04/05 06:11:55;;;;;;;4.57;2.10;;;;;;;6.20;87.55;99617.19;4976914;28;20219;-73
2022/04/05 06:14:21;;;;;;;4.60;1.83;;;;;;;6.15;87.16;99621.88;4970263;28;20674;-74
2022/04/05 06:16:49;;;;;;;3.97;1.80;;;;;;;6.11;87.29;99632.72;4970279;28;20236;-73
2022/04/05 06:19:16;;;;;;;4.47;2.30;;;;;;;6.10;87.58;99625.75;4970829;28;20714;-73
2022/04/05 06:21:42;;;;;;;6.57;1.90;;;;;;;6.11;87.48;99630.94;4980456;28;20216;-73
2022/04/05 06:24:09;;;;;;;5.07;2.30;;;;;;;6.09;87.33;99634.66;4952263;28;20213;-73
2022/04/05 06:26:35;;;;;;;5.43;2.30;;;;;;;6.08;87.73;99639.09;4966242;28;20308;-73
2022/04/05 06:29:02;;;;;;;7.37;2.63;;;;;;;6.08;87.33;99631.16;4971237;28;20224;-74
2022/04/05 06:31:28;;;;;;;2.53;1.70;;;;;;;6.08;87.53;99639.09;4968838;28;20562;-73
2022/04/05 06:33:58;;;;;;;4.27;2.13;;;;;;;6.10;87.18;99641.59;4970256;28;20211;-72
2022/04/05 06:36:25;;;;;;;6.20;2.20;;;;;;;6.10;87.68;99647.75;4965588;28;20232;-73
2022/04/05 06:38:51;;;;;;;3.13;1.80;;;;;;;6.08;87.40;99644.38;4962340;28;20720;-72
2022/04/05 06:41:18;;;;;;;8.17;2.17;;;;;;;6.09;87.27;99650.50;4971662;28;20216;-71
2022/04/05 06:43:44;;;;;;;4.97;1.87;;;;;;;6.07;87.08;99637.38;4965839;28;20212;-73
2022/04/05 06:46:11;;;;;;;7.43;2.27;;;;;;;6.08;87.45;99643.53;4968524;28;20207;-72
2022/04/05 06:48:37;;;;;;;6.13;1.80;;;;;;;6.06;87.42;99645.41;4965929;28;20235;-72
2022/04/05 06:51:05;;;;;;;6.30;1.53;;;;;;;6.06;87.36;99646.25;4964696;28;20233;-73
2022/04/05 06:53:32;;;;;;;5.20;1.67;;;;;;;6.07;87.49;99647.09;4968145;28;20201;-73
2022/04/05 06:55:59;;;;;;;5.57;1.83;;;;;;;6.08;87.39;99646.16;4963080;28;20235;-71
2022/04/05 06:58:26;;;;;;;4.63;1.40;;;;;;;6.08;87.21;99644.38;4965295;28;20211;-73
2022/04/05 07:00:52;;;;;;;6.67;1.33;;;;;;;6.08;87.30;99647.00;4963886;28;20219;-73
2022/04/05 07:03:19;;;;;;;2.87;1.47;;;;;;;6.08;86.90;99647.00;4967385;28;20208;-71
2022/04/05 07:05:45;;;;;;;5.97;1.47;;;;;;;6.08;86.90;99654.09;4963724;28;20204;-72
2022/04/05 07:08:13;;;;;;;4.27;1.30;;;;;;;6.06;87.29;99650.69;4958199;28;20207;-72
2022/04/05 07:10:39;;;;;;;4.40;1.23;;;;;;;6.07;86.86;99657.69;4956960;28;20229;-72
2022/04/05 07:13:07;;;;;;;3.77;1.50;;;;;;;6.05;86.76;99652.47;4969044;28;20212;-72
2022/04/05 07:15:34;;;;;;;5.70;1.47;;;;;;;6.07;86.79;99653.25;4962752;28;20236;-71
2022/04/05 07:18:01;;;;;;;3.83;1.13;;;;;;;6.07;86.80;99647.97;4961540;28;20211;-73
2022/04/05 07:20:27;;;;;;;5.67;1.30;;;;;;;6.07;86.66;99645.31;4957212;28;20741;-73
2022/04/05 07:22:54;;;;;;;4.23;1.13;;;;;;;6.05;86.44;99644.56;4960218;28;20213;-73
2022/04/05 07:25:21;;;;;;;5.57;1.30;;;;;;;6.04;86.55;99642.84;4963699;28;20216;-73
2022/04/05 07:27:48;;;;;;;7.10;1.60;;;;;;;6.05;86.38;99649.00;4962584;28;20223;-72
2022/04/05 07:30:16;;;;;;;4.50;1.30;;;;;;;6.05;86.37;99644.56;4961150;28;20236;-72
2022/04/05 07:32:45;;;;;;;3.97;1.30;;;;;;;6.07;86.71;99644.47;4955008;28;20294;-72
2022/04/05 07:35:13;;;;;;;6.27;1.70;;;;;;;6.08;86.67;99639.09;4959640;28;20203;-71
2022/04/05 07:37:40;;;;;;;4.87;1.83;;;;;;;6.11;86.72;99648.59;4962453;28;20208;-72
2022/04/05 07:40:10;;;;;;;4.63;1.60;;;;;;;6.13;86.68;99650.22;4958277;28;20232;-72
2022/04/05 07:42:39;;;;;;;6.60;2.00;;;;;;;6.16;86.80;99652.66;4956550;28;20647;-73
2022/04/05 07:45:07;;;;;;;5.50;1.97;;;;;;;6.18;86.78;99653.44;4957842;28;20211;-71
2022/04/05 07:47:34;;;;;;;5.90;2.00;;;;;;;6.21;86.71;99661.19;4958920;28;20534;-71
2022/04/05 07:50:01;;;;;;;7.47;2.20;;;;;;;6.23;87.37;99656.66;4961235;28;20231;-71
2022/04/05 07:52:27;;;;;;;3.60;1.80;;;;;;;6.26;87.09;99666.19;4958185;28;20644;-71
2022/04/05 07:54:54;;;;;;;5.40;2.17;;;;;;;6.28;87.16;99659.00;4958492;28;20220;-72
2022/04/05 07:57:20;;;;;;;5.37;2.30;;;;;;;6.32;87.60;99664.94;4959764;28;20224;-71
2022/04/05 07:59:48;;;;;;;5.83;2.73;;;;;;;6.35;87.56;99656.81;4960364;28;20248;-72
2022/04/05 08:02:15;;;;;;;6.77;2.27;;;;;;;6.37;87.63;99658.44;4962048;28;20212;-72
2022/04/05 08:04:41;;;;;;;6.43;1.80;;;;;;;6.40;87.40;99662.69;4958702;28;20216;-71
2022/04/05 08:07:08;;;;;;;5.80;2.00;;;;;;;6.44;87.93;99661.56;4962295;28;20204;-71
2022/04/05 08:09:34;;;;;;;5.57;2.03;;;;;;;6.47;87.58;99656.06;4957703;28;20229;-72
2022/04/05 08:12:02;;;;;;;6.07;3.27;;;;;;;6.51;87.82;99657.56;4968648;28;20208;-71
2022/04/05 08:14:30;;;;;;;5.77;2.30;;;;;;;6.56;87.90;99660.78;4967026;28;20270;-71
2022/04/05 08:17:01;;;;;;;8.47;2.97;;;;;;;6.60;88.59;99664.94;4965548;28;20259;-71
2022/04/05 08:19:28;;;;;;;5.20;2.00;;;;;;;6.63;88.12;99664.72;4968445;28;20278;-71
2022/04/05 08:21:55;;;;;;;4.77;2.20;;;;;;;6.65;88.40;99665.50;4964365;28;20243;-71
2022/04/05 08:24:21;;;;;;;5.70;2.07;;;;;;;6.68;88.41;99667.94;4956788;28;20697;-72
2022/04/05 08:26:48;;;;;;;4.47;1.90;;;;;;;6.72;89.01;99663.31;4957744;28;20205;-72
2022/04/05 08:29:14;;;;;;;7.60;2.50;;;;;;;6.74;88.44;99666.72;4954693;28;20239;-72
2022/04/05 08:31:41;;;;;;;6.20;1.90;;;;;;;6.76;88.40;99675.41;4952249;28;20209;-71
2022/04/05 08:34:09;;;;;;;4.33;1.67;;;;;;;6.77;88.33;99669.19;4971189;28;20221;-71
2022/04/05 08:36:35;;;;;;;6.77;2.77;;;;;;;6.78;87.67;99671.72;4959828;28;20231;-71
2022/04/05 08:39:03;;;;;;;4.47;1.80;;;;;;;6.80;88.34;99675.13;4958180;28;20726;-71
2022/04/05 08:41:32;;;;;;;6.57;1.70;;;;;;;6.82;88.19;99675.84;4962077;28;20986;-71
2022/04/05 08:44:01;;;;;;;7.30;2.53;;;;;;;6.84;88.04;99673.97;4963640;28;20303;-71
2022/04/05 08:46:33;;;;;;;6.53;1.83;;;;;;;6.88;87.36;99675.47;4958146;28;20228;-71
2022/04/05 08:49:00;;;;;;;3.17;0.90;;;;;;;6.92;87.53;99676.13;4964032;28;20696;-71
2022/04/05 08:51:29;;;;;;;5.60;1.50;;;;;;;6.96;87.16;99675.00;4957025;28;20212;-71
2022/04/05 08:53:56;;;;;;;3.63;1.37;;;;;;;7.00;87.29;99675.63;4961289;28;20209;-71
2022/04/05 08:56:26;;;;;;;5.33;1.40;;;;;;;7.02;86.64;99673.75;4959335;28;20229;-71
2022/04/05 08:58:53;;;;;;;3.50;1.40;;;;;;;7.07;86.51;99671.66;4961616;28;20902;-71
2022/04/05 09:01:21;;;;;;;5.97;1.37;;;;;;;7.13;86.24;99676.56;4959476;28;20700;-70
2022/04/05 09:03:47;;;;;;;4.57;1.17;;;;;;;7.20;85.56;99676.06;4970244;28;20255;-71
2022/04/05 09:06:30;;;;;;;4.50;1.17;;;;;;;7.25;85.10;99670.47;4967991;28;20673;-71
2022/04/05 09:09:07;;;;;;;5.80;1.40;;;;;;;7.30;85.37;99669.22;4957015;28;20240;-71
2022/04/05 09:11:34;;;;;;;3.60;1.20;;;;;;;7.37;84.49;99668.81;4954709;28;20769;-70
2022/04/05 09:14:02;;;;;;;3.83;1.40;;;;;;;7.42;85.10;99670.22;4956284;28;20616;-71
2022/04/05 09:16:31;;;;;;;4.67;1.13;;;;;;;7.49;84.97;99671.50;4953907;28;20228;-71
2022/04/05 09:18:58;;;;;;;4.53;1.50;;;;;;;7.53;84.41;99662.38;4956349;28;20317;-70
2022/04/05 09:21:25;;;;;;;8.80;1.90;;;;;;;7.58;84.57;99672.69;4956578;28;20609;-71
2022/04/05 09:24:05;;;;;;;4.83;1.80;;;;;;;7.61;84.05;99665.38;4954426;28;20201;-70
2022/04/05 09:26:42;;;;;;;6.97;2.10;;;;;;;7.64;83.90;99675.78;4958745;28;20200;-70
2022/04/05 09:29:10;;;;;;;5.27;1.63;;;;;;;7.68;84.22;99670.28;4963184;28;20733;-71
2022/04/05 09:31:44;;;;;;;4.33;1.40;;;;;;;7.70;83.82;99665.75;4957994;28;20920;-71
2022/04/05 09:34:13;;;;;;;4.77;1.70;;;;;;;7.71;83.13;99651.50;4960140;28;20252;-70
2022/04/05 09:36:42;;;;;;;9.97;1.97;;;;;;;7.71;83.44;99659.47;4964849;28;20311;-71
2022/04/05 09:39:28;;;;;;;8.17;2.27;;;;;;;7.73;82.77;99666.34;4962346;28;20224;-70
2022/04/05 09:42:00;;;;;;;5.93;2.20;;;;;;;7.72;82.30;99664.66;4959759;28;20205;-71
2022/04/05 09:44:29;;;;;;;3.77;1.40;;;;;;;7.73;82.61;99661.06;4961272;28;20240;-71
2022/04/05 09:47:04;;;;;;;5.63;1.83;;;;;;;7.74;82.02;99657.47;4959735;28;20231;-71
2022/04/05 09:49:32;;;;;;;6.30;2.10;;;;;;;7.75;82.77;99664.47;4962005;28;20604;-70
2022/04/05 09:51:59;;;;;;;5.73;1.80;;;;;;;7.77;82.15;99661.72;4961479;28;20262;-70
2022/04/05 09:54:29;;;;;;;4.57;1.87;;;;;;;7.78;82.58;99656.31;4953341;28;20235;-73
2022/04/05 09:57:06;;;;;;;7.37;2.20;;;;;;;7.83;82.70;99661.31;4962635;28;20229;-71
2022/04/05 09:59:40;;;;;;;5.17;2.13;;;;;;;7.86;83.01;99661.94;4959845;28;20231;-72
2022/04/05 10:02:15;;;;;;;6.80;2.43;;;;;;;7.89;83.12;99652.91;4970115;28;20214;-70
2022/04/05 10:05:01;;;;;;;9.17;3.00;;;;;;;7.93;83.03;99649.09;4968527;28;20658;-71
2022/04/05 10:07:29;;;;;;;6.50;2.47;;;;;;;7.96;83.80;99654.19;4958319;28;20211;-71
2022/04/05 10:09:59;;;;;;;7.17;2.43;;;;;;;8.00;83.53;99645.09;4961414;28;21085;-71
2022/04/05 10:12:27;;;;;;;8.30;3.30;;;;;;;8.04;83.01;99648.38;4961679;28;20267;-72
2022/04/05 10:14:54;;;;;;;5.90;3.50;;;;;;;8.06;83.52;99638.53;4966041;28;20219;-71
2022/04/05 10:17:21;;;;;;;5.37;3.20;;;;;;;8.08;83.85;99642.75;4960183;28;20236;-72
2022/04/05 10:19:50;;;;;;;9.00;3.40;;;;;;;8.10;83.70;99642.66;4962008;28;20235;-72
2022/04/05 10:22:18;;;;;;;7.17;3.50;;;;;;;8.13;83.82;99642.44;4962753;28;20201;-73
2022/04/05 10:24:46;;;;;;;3.30;2.90;;;;;;;8.14;83.97;99642.34;4968934;28;20208;-77
2022/04/05 10:27:15;;;;;;;4.67;3.07;;;;;;;8.20;83.92;99644.56;4971280;28;20208;-77
2022/04/05 10:29:43;;;;;;;4.97;3.73;;;;;;;8.20;83.72;99644.56;4971407;28;20250;-76
2022/04/05 10:32:19;;;;;;;4.63;3.43;;;;;;;8.21;84.45;99646.28;4971052;28;20255;-76
2022/04/05 10:34:50;;;;;;;4.90;3.33;;;;;;;8.21;83.37;99642.78;4968658;28;20567;-77
2022/04/05 10:37:19;;;;;;;5.93;4.10;;;;;;;8.20;84.08;99628.66;4966414;28;20311;-77
2022/04/05 10:40:20;;;;;;;4.37;3.13;;;;;;;8.23;84.13;99633.75;4971560;28;20315;-76
2022/04/05 10:42:49;;;;;;;5.00;3.20;;;;;;;8.24;83.85;99632.78;4968305;28;20211;-77
2022/04/05 10:45:17;;;;;;;3.53;3.00;;;;;;;8.27;84.02;99632.56;4963571;28;20604;-76
2022/04/05 10:48:12;;;;;;;5.30;3.57;;;;;;;8.32;83.93;99634.94;4967695;28;20295;-76
2022/04/05 10:50:39;;;;;;;3.97;2.90;;;;;;;8.34;85.02;99628.56;4969332;28;20709;-78
2022/04/05 10:53:15;;;;;;;5.20;3.17;;;;;;;8.35;83.99;99626.75;4969909;28;20216;-77
2022/04/05 10:56:14;;;;;;;5.23;3.10;;;;;;;8.38;84.02;99628.34;4970261;28;20207;-77
2022/04/05 10:58:57;;;;;;;4.97;2.90;;;;;;;8.40;84.13;99624.63;4966990;28;20224;-77
2022/04/05 11:01:25;;;;;;;4.63;3.00;;;;;;;8.43;83.93;99618.25;4965857;28;20216;-77
2022/04/05 11:04:28;;;;;;;4.67;3.50;;;;;;;8.44;83.78;99620.78;4968915;28;20219;-76
2022/04/05 11:07:14;;;;;;;5.70;3.03;;;;;;;8.45;84.63;99613.69;4968505;28;20640;-76
2022/04/05 11:09:49;;;;;;;3.83;3.30;;;;;;;8.44;85.03;99618.13;4970446;28;20220;-77
2022/04/05 11:12:21;;;;;;;3.40;3.03;;;;;;;8.46;84.27;99618.88;4969865;28;20204;-77
2022/04/05 11:14:51;;;;;;;6.23;2.93;;;;;;;8.47;84.66;99623.22;4960397;28;20208;-76
2022/04/05 11:17:20;;;;;;;3.70;2.83;;;;;;;8.48;85.07;99616.97;4958697;28;20542;-77
2022/04/05 11:19:50;;;;;;;4.73;3.10;;;;;;;8.50;84.51;99619.50;4956220;28;20291;-76
2022/04/05 11:22:34;;;;;;;4.67;2.63;;;;;;;8.50;84.79;99619.50;4955349;28;20209;-77
2022/04/05 11:25:04;;;;;;;4.77;2.60;;;;;;;8.48;84.59;99616.97;4959354;28;20196;-77
2022/04/05 11:27:35;;;;;;;3.20;2.50;;;;;;;8.48;84.49;99616.97;4958918;28;20245;-77
2022/04/05 11:30:51;;;;;;;3.70;2.57;;;;;;;8.50;84.71;99616.88;4963116;28;20223;-77
2022/04/05 11:33:34;;;;;;;3.80;2.33;;;;;;;8.49;84.48;99623.13;4959116;28;20224;-77
2022/04/05 11:36:02;;;;;;;12.73;3.40;;;;;;;8.50;84.19;99623.03;4954949;28;20577;-77
2022/04/05 11:38:40;;;;;;;4.00;2.23;;;;;;;8.48;83.91;99616.13;4958162;28;20224;-78
2022/04/05 11:41:12;;;;;;;3.80;2.40;;;;;;;8.50;83.81;99616.88;4957106;28;20209;-76
2022/04/05 11:43:42;;;;;;;3.33;2.70;;;;;;;8.54;84.25;99621.84;4955467;28;20205;-77
2022/04/05 11:46:11;;;;;;;6.40;3.23;;;;;;;8.58;83.96;99623.34;4963330;28;20619;-76
2022/04/05 11:48:49;;;;;;;5.97;2.63;;;;;;;8.63;84.15;99618.53;4965079;28;20935;-77